AV - LB | Pilotos de la V.A




 METAR AND TAF INFORMATION
METAR FOR ESGG
ADDS - METARS form results

(0304 UTC 19 May 2021)
Data provider http://aviationweather.gov/metar/data/
 
METAR text: ESGG 190250Z 25005KT 9999 BKN009 07/06 Q1009
Conditions at: ESGG (GOTEBORG/LANDVET, SE) observed 0250 UTC 19 May 2021
Temperature: 7.0°C (45°F)
Dewpoint: 6.0°C (43°F) [RH = 93%]
Pressure (altimeter): 29.79 inches Hg (1009.0 mb)
Winds: from the WSW (250 degrees) at 6 MPH (5 knots; 2.6 m/s)
Visibility: 6 or more miles (10+ km)
Ceiling: 900 feet AGL
Clouds: broken clouds at 900 feet AGL
Weather: no significant weather observed at this time

METAR text: ESGG 190220Z 23005KT 9999 BKN009 07/06 Q1009
Conditions at: ESGG (GOTEBORG/LANDVET, SE) observed 0220 UTC 19 May 2021
Temperature: 7.0°C (45°F)
Dewpoint: 6.0°C (43°F) [RH = 93%]
Pressure (altimeter): 29.79 inches Hg (1009.0 mb)
Winds: from the SW (230 degrees) at 6 MPH (5 knots; 2.6 m/s)
Visibility: 6 or more miles (10+ km)
Ceiling: 900 feet AGL
Clouds: broken clouds at 900 feet AGL
Weather: no significant weather observed at this time

Forecast for: AMD
Text: TAF AMD ESGG 190211Z 1902/1924 25005KT 9999 BKN010
Forecast period: 0200 to 0600 UTC 19 May 2021
Forecast type: FROM: standard forecast or significant change
Winds: from the WSW (250 degrees) at 6 MPH (5 knots; 2.6 m/s)
Visibility: 6 or more miles (10+ km)
Ceiling: 1000 feet AGL
Clouds: broken clouds at 1000 feet AGL
Weather: no significant weather forecast for this period
Text: PROB40 1902/1906 2000 BR BKN004
Forecast period: 0200 to 0600 UTC 19 May 2021
Forecast type: PROBABLE: 40 percent likelihood of the following during this time
Visibility: 1.24 miles (2.00 km)
Ceiling: 400 feet AGL
Clouds: broken clouds at 400 feet AGL
Weather: BR  (mist)
Text: BECMG 1906/1908 BKN015
Forecast period: 0600 UTC 19 May 2021 to 0000 UTC 20 May 2021
Forecast type: BECOMING: Conditions expected to become as follows by 0800 UTC 19 May 2021
Winds: from the WSW (250 degrees) at 6 MPH (5 knots; 2.6 m/s)
Visibility: 6 or more miles (10+ km)
Ceiling: 1500 feet AGL
Clouds: broken clouds at 1500 feet AGL
Weather: no significant weather forecast for this period

 AIRPORT MAP

 RUNWAY INFORMATION
Runway 03 Runway length 10823 ft Runway width 148 ft
Runway elevation 478 ft Runway displaced threshold 0 ft Runway heading 26
Runway 21 Runway length 10823 ft Runway width 148 ft
Runway elevation 506 ft Runway displaced threshold 0 ft Runway heading 206

 AIRPORT FREQUENCIES
Type ATIS Name ATIS Frequency 118.375 MHZ
Type GCCD Name GND Frequency 121.9 MHZ
Type TCA Name GOTEBORG A Frequency 124.675 MHZ
Type TWR Name TWR Frequency 118.6 MHZ

 AIRPORT NEAR NAVIGATION AIDS
Type VOR-DME Name Landvetter Frequency 114600 KHZ